createdAt,value
2024-03-05T00:00:00.212Z,101270.81
2024-03-05T00:01:03.701Z,101276.59
2024-03-05T00:02:06.024Z,101277.81
2024-03-05T00:03:09.279Z,101276.28
2024-03-05T00:04:11.779Z,101278.91
2024-03-05T00:05:15.904Z,101282.50
2024-03-05T00:06:18.103Z,101270.72
2024-03-05T00:07:21.365Z,101274.72
2024-03-05T00:08:23.748Z,101280.13
2024-03-05T00:09:26.930Z,101283.34
2024-03-05T00:10:30.262Z,101279.09
2024-03-05T00:11:33.026Z,101278.53
2024-03-05T00:12:36.810Z,101273.66
2024-03-05T00:13:40.276Z,101280.22
2024-03-05T00:14:42.704Z,101274.84
2024-03-05T00:15:46.659Z,101278.94
2024-03-05T00:16:49.034Z,101284.31
2024-03-05T00:17:53.361Z,101284.44
2024-03-05T00:18:55.585Z,101286.53
2024-03-05T00:19:57.924Z,101289.28
2024-03-05T00:21:01.452Z,101287.78
2024-03-05T00:22:04.464Z,101291.91
2024-03-05T00:23:07.714Z,101301.69
2024-03-05T00:24:10.130Z,101297.47
2024-03-05T00:25:12.674Z,101303.72
2024-03-05T00:26:19.494Z,101304.75
2024-03-05T00:27:21.833Z,101311.91
2024-03-05T00:28:26.516Z,101309.53
2024-03-05T00:29:28.684Z,101319.41
2024-03-05T00:30:32.119Z,101318.25
2024-03-05T00:31:35.478Z,101317.22
2024-03-05T00:32:39.721Z,101323.25
2024-03-05T00:33:42.144Z,101312.63
2024-03-05T00:34:45.372Z,101320.34
2024-03-05T00:35:48.303Z,101325.47
2024-03-05T00:36:51.673Z,101322.28
2024-03-05T00:37:53.826Z,101322.59
2024-03-05T00:38:57.117Z,101327.72
2024-03-05T00:39:59.734Z,101327.00
2024-03-05T00:41:03.189Z,101326.22
2024-03-05T00:42:05.914Z,101326.50
2024-03-05T00:43:09.876Z,101327.88
2024-03-05T00:44:13.691Z,101332.31
2024-03-05T00:45:18.754Z,101324.81
2024-03-05T00:46:22.094Z,101325.75
2024-03-05T00:47:25.649Z,101330.44
2024-03-05T00:48:29.070Z,101327.56
2024-03-05T00:49:32.664Z,101331.44
2024-03-05T00:50:36.063Z,101328.47
2024-03-05T00:51:38.423Z,101327.31
2024-03-05T00:52:42.067Z,101332.97
2024-03-05T00:53:44.573Z,101333.19
2024-03-05T00:54:47.836Z,101338.44
2024-03-05T00:55:50.023Z,101336.19
2024-03-05T00:56:52.841Z,101343.97
2024-03-05T00:57:56.416Z,101346.72
2024-03-05T00:59:03.194Z,101345.97
2024-03-05T01:00:09.200Z,101354.06
2024-03-05T01:01:11.894Z,101350.41
2024-03-05T01:02:15.729Z,101353.00
2024-03-05T01:03:18.624Z,101348.06
2024-03-05T01:04:21.857Z,101358.63
2024-03-05T01:05:25.270Z,101353.94
2024-03-05T01:06:28.566Z,101356.44
2024-03-05T01:07:30.774Z,101360.59
2024-03-05T01:08:34.167Z,101356.88
2024-03-05T01:09:36.419Z,101359.88
2024-03-05T01:10:40.558Z,101353.00
2024-03-05T01:11:42.769Z,101356.78
2024-03-05T01:12:46.504Z,101354.47
2024-03-05T01:13:49.789Z,101347.25
2024-03-05T01:14:53.255Z,101343.34
2024-03-05T01:15:58.038Z,101348.78
2024-03-05T01:17:01.464Z,101347.13
2024-03-05T01:18:04.524Z,101346.59
2024-03-05T01:19:07.869Z,101344.00
2024-03-05T01:20:17.172Z,101346.97
2024-03-05T01:21:21.620Z,101341.53
2024-03-05T01:22:23.974Z,101335.75
2024-03-05T01:23:27.173Z,101330.38
2024-03-05T01:24:29.475Z,101327.44
2024-03-05T01:25:32.811Z,101328.84
2024-03-05T01:26:35.142Z,101327.38
2024-03-05T01:27:39.605Z,101320.84
2024-03-05T01:28:42.839Z,101324.84
2024-03-05T01:29:48.618Z,101321.06
2024-03-05T01:30:50.962Z,101322.31
2024-03-05T01:31:57.913Z,101326.72
2024-03-05T01:33:02.598Z,101315.78
2024-03-05T01:34:04.819Z,101320.63
2024-03-05T01:35:11.588Z,101318.25
2024-03-05T01:36:16.634Z,101315.50
2024-03-05T01:37:19.961Z,101316.66
2024-03-05T01:38:22.380Z,101315.56
2024-03-05T01:39:27.180Z,101312.25
2024-03-05T01:40:29.959Z,101311.00
2024-03-05T01:41:33.326Z,101315.06
2024-03-05T01:42:35.508Z,101314.63
2024-03-05T01:43:39.252Z,101309.69
2024-03-05T01:44:41.790Z,101313.91
2024-03-05T01:45:44.926Z,101314.84
2024-03-05T01:46:47.815Z,101319.63
2024-03-05T01:47:53.543Z,101319.19
2024-03-05T01:48:55.796Z,101311.94
2024-03-05T01:49:59.363Z,101309.75
2024-03-05T01:51:02.943Z,101319.19
2024-03-05T01:52:06.657Z,101313.31
2024-03-05T01:53:12.724Z,101317.53
2024-03-05T01:54:17.571Z,101322.31
2024-03-05T01:55:20.850Z,101324.63
2024-03-05T01:56:24.213Z,101320.66
2024-03-05T01:57:27.781Z,101319.84
2024-03-05T01:58:31.458Z,101319.00
2024-03-05T01:59:34.764Z,101313.66
2024-03-05T02:00:38.640Z,101315.38
2024-03-05T02:01:40.984Z,101312.59
2024-03-05T02:02:45.824Z,101312.59
2024-03-05T02:03:50.223Z,101310.97
2024-03-05T02:04:54.280Z,101311.94
2024-03-05T02:06:00.899Z,101308.69
2024-03-05T02:07:04.705Z,101309.97
2024-03-05T02:08:07.527Z,101312.59
2024-03-05T02:09:13.494Z,101312.78
2024-03-05T02:10:15.762Z,101313.91
2024-03-05T02:11:19.852Z,101316.00
2024-03-05T02:12:22.077Z,101306.06
2024-03-05T02:13:26.139Z,101307.38
2024-03-05T02:14:29.153Z,101308.28
2024-03-05T02:15:31.497Z,101306.47
2024-03-05T02:16:34.870Z,101312.88
2024-03-05T02:17:37.060Z,101308.88
2024-03-05T02:18:40.556Z,101314.31
2024-03-05T02:19:48.482Z,101308.09
2024-03-05T02:20:51.885Z,101308.44
2024-03-05T02:21:59.435Z,101313.59
2024-03-05T02:23:03.600Z,101313.53
2024-03-05T02:24:06.215Z,101312.53
2024-03-05T02:25:10.886Z,101317.63
2024-03-05T02:26:13.278Z,101314.47
2024-03-05T02:27:23.608Z,101319.91
2024-03-05T02:28:29.789Z,101311.34
2024-03-05T02:29:35.646Z,101321.16
2024-03-05T02:30:38.238Z,101321.94
2024-03-05T02:31:41.729Z,101316.81
2024-03-05T02:32:44.357Z,101322.84
2024-03-05T02:33:49.566Z,101321.00
2024-03-05T02:34:55.661Z,101326.59
2024-03-05T02:36:00.138Z,101315.34
2024-03-05T02:37:04.889Z,101313.31
2024-03-05T02:38:08.086Z,101321.53
2024-03-05T02:39:11.047Z,101315.78
2024-03-05T02:40:15.947Z,101319.47
2024-03-05T02:41:18.372Z,101320.72
2024-03-05T02:42:20.937Z,101323.53
2024-03-05T02:43:24.248Z,101325.44
2024-03-05T02:44:28.011Z,101322.22
2024-03-05T02:45:31.377Z,101321.00
2024-03-05T02:46:33.856Z,101325.50
2024-03-05T02:47:37.441Z,101332.84
2024-03-05T02:48:40.746Z,101333.50
2024-03-05T02:49:42.967Z,101330.16
2024-03-05T02:50:48.576Z,101333.72
2024-03-05T02:51:51.000Z,101335.06
2024-03-05T02:52:55.696Z,101339.88
2024-03-05T02:53:57.970Z,101337.13
2024-03-05T02:55:00.513Z,101341.91
2024-03-05T02:56:06.011Z,101337.78
2024-03-05T02:57:08.585Z,101336.41
2024-03-05T02:58:12.375Z,101332.50
2024-03-05T02:59:14.533Z,101339.78
2024-03-05T03:00:21.434Z,101336.69
2024-03-05T03:01:24.774Z,101335.69
2024-03-05T03:02:28.069Z,101341.00
2024-03-05T03:03:30.751Z,101345.03
2024-03-05T03:04:34.132Z,101341.34
2024-03-05T03:05:37.239Z,101337.34
2024-03-05T03:06:40.949Z,101344.53
2024-03-05T03:07:44.988Z,101347.56
2024-03-05T03:08:49.673Z,101348.69
2024-03-05T03:09:51.872Z,101350.19
2024-03-05T03:10:56.977Z,101346.75
2024-03-05T03:11:59.714Z,101349.22
2024-03-05T03:13:03.372Z,101348.91
2024-03-05T03:14:05.610Z,101352.41
2024-03-05T03:15:09.136Z,101348.81
2024-03-05T03:16:12.910Z,101354.03
2024-03-05T03:17:15.191Z,101362.03
2024-03-05T03:18:19.046Z,101360.66
2024-03-05T03:19:21.682Z,101360.91
2024-03-05T03:20:24.983Z,101362.88
2024-03-05T03:21:27.675Z,101365.66
2024-03-05T03:22:31.506Z,101367.44
2024-03-05T03:23:34.449Z,101363.97
2024-03-05T03:24:39.170Z,101365.28
2024-03-05T03:25:42.432Z,101368.84
2024-03-05T03:26:46.272Z,101370.97
2024-03-05T03:27:48.573Z,101370.88
2024-03-05T03:28:53.559Z,101370.00
2024-03-05T03:29:56.153Z,101370.38
2024-03-05T03:30:59.480Z,101383.94
2024-03-05T03:32:02.645Z,101375.16
2024-03-05T03:33:06.763Z,101377.47
2024-03-05T03:34:09.021Z,101382.31
2024-03-05T03:35:15.191Z,101377.19
2024-03-05T03:36:24.896Z,101381.13
2024-03-05T03:37:28.252Z,101382.19
2024-03-05T03:38:30.506Z,101391.84
2024-03-05T03:39:33.734Z,101389.13
2024-03-05T03:40:37.354Z,101390.34
2024-03-05T03:41:41.620Z,101385.72
2024-03-05T03:42:43.819Z,101390.28
2024-03-05T03:43:47.100Z,101393.47
2024-03-05T03:44:49.430Z,101393.47
2024-03-05T03:45:53.539Z,101391.94
2024-03-05T03:46:55.906Z,101395.31
2024-03-05T03:47:59.270Z,101398.75
2024-03-05T03:49:01.996Z,101393.97
2024-03-05T03:50:05.250Z,101399.41
2024-03-05T03:51:08.982Z,101398.56
2024-03-05T03:52:11.570Z,101388.50
2024-03-05T03:53:14.811Z,101394.91
2024-03-05T03:54:16.965Z,101396.34
2024-03-05T03:55:20.611Z,101392.84
2024-03-05T03:56:24.263Z,101397.41
2024-03-05T03:57:27.269Z,101399.66
2024-03-05T03:58:31.920Z,101403.38
2024-03-05T03:59:34.424Z,101401.63
2024-03-05T04:00:37.854Z,101401.97
2024-03-05T04:01:40.486Z,101393.31
2024-03-05T04:02:45.320Z,101395.72
2024-03-05T04:03:48.380Z,101400.81
2024-03-05T04:04:51.934Z,101403.19
2024-03-05T04:05:54.347Z,101408.53
2024-03-05T04:06:57.672Z,101399.44
2024-03-05T04:08:04.328Z,101395.38
2024-03-05T04:09:09.744Z,101403.94
2024-03-05T04:10:12.479Z,101399.75
2024-03-05T04:11:16.856Z,101406.44
2024-03-05T04:12:20.588Z,101404.19
2024-03-05T04:13:24.839Z,101405.22
2024-03-05T04:14:27.506Z,101398.81
2024-03-05T04:15:31.412Z,101407.66
2024-03-05T04:16:33.931Z,101406.03
2024-03-05T04:17:38.616Z,101411.34
2024-03-05T04:18:40.987Z,101404.88
2024-03-05T04:19:44.516Z,101406.91
2024-03-05T04:20:46.793Z,101410.16
2024-03-05T04:21:50.032Z,101412.94
2024-03-05T04:22:53.215Z,101413.59
2024-03-05T04:23:55.640Z,101414.63
2024-03-05T04:24:59.097Z,101418.31
2024-03-05T04:26:08.545Z,101417.47
2024-03-05T04:27:13.228Z,101423.06
2024-03-05T04:28:17.801Z,101426.22
2024-03-05T04:29:21.977Z,101429.41
2024-03-05T04:30:24.873Z,101424.59
2024-03-05T04:31:37.591Z,101425.88
2024-03-05T04:32:56.469Z,101430.69
2024-03-05T04:34:04.354Z,101431.09
2024-03-05T04:35:12.482Z,101436.81
2024-03-05T04:36:16.095Z,101430.19
2024-03-05T04:37:19.500Z,101432.38
2024-03-05T04:38:22.581Z,101427.22
2024-03-05T04:39:25.896Z,101419.56
2024-03-05T04:40:28.354Z,101431.84
2024-03-05T04:41:31.678Z,101425.44
2024-03-05T04:42:34.048Z,101428.66
2024-03-05T04:43:40.545Z,101434.25
2024-03-05T04:44:44.005Z,101432.88
2024-03-05T04:45:46.961Z,101428.84
2024-03-05T04:46:50.421Z,101431.91
2024-03-05T04:47:53.141Z,101426.88
2024-03-05T04:48:56.634Z,101432.75
2024-03-05T04:49:59.109Z,101432.53
2024-03-05T04:51:02.497Z,101442.22
2024-03-05T04:52:05.176Z,101438.00
2024-03-05T04:53:08.974Z,101439.31
2024-03-05T04:54:12.233Z,101441.44
2024-03-05T04:55:15.852Z,101438.25
2024-03-05T04:56:18.276Z,101442.47
2024-03-05T04:57:21.402Z,101436.00
2024-03-05T04:58:23.874Z,101440.34
2024-03-05T04:59:28.612Z,101432.53
2024-03-05T05:00:30.835Z,101438.31
2024-03-05T05:01:34.489Z,101445.09
2024-03-05T05:02:36.744Z,101445.09
2024-03-05T05:03:40.227Z,101444.91
2024-03-05T05:04:42.548Z,101453.78
2024-03-05T05:05:45.820Z,101449.75
2024-03-05T05:06:48.072Z,101444.41
2024-03-05T05:07:51.309Z,101452.72
2024-03-05T05:08:53.874Z,101454.69
2024-03-05T05:09:57.135Z,101456.16
2024-03-05T05:10:59.606Z,101454.00
2024-03-05T05:12:03.371Z,101454.19
2024-03-05T05:13:05.731Z,101446.97
2024-03-05T05:14:09.088Z,101448.53
2024-03-05T05:15:13.650Z,101452.31
2024-03-05T05:16:17.332Z,101445.88
2024-03-05T05:17:19.486Z,101453.66
2024-03-05T05:18:22.867Z,101454.47
2024-03-05T05:19:26.675Z,101451.91
2024-03-05T05:20:29.992Z,101457.53
2024-03-05T05:21:32.318Z,101460.91
2024-03-05T05:22:35.611Z,101454.09
2024-03-05T05:23:37.910Z,101457.50
2024-03-05T05:24:41.289Z,101458.69
2024-03-05T05:26:47.491Z,101466.56
2024-03-05T05:27:50.248Z,101469.06
2024-03-05T05:28:53.604Z,101471.66
2024-03-05T05:29:58.788Z,101473.66
2024-03-05T05:31:25.780Z,101469.22
2024-03-05T05:32:28.558Z,101470.44
2024-03-05T05:33:33.448Z,101483.84
2024-03-05T05:34:35.933Z,101482.69
2024-03-05T05:35:39.838Z,101483.84
2024-03-05T05:36:43.077Z,101488.28
2024-03-05T05:37:45.951Z,101488.31
2024-03-05T05:38:50.199Z,101489.06
2024-03-05T05:39:52.398Z,101488.06
2024-03-05T05:40:54.748Z,101490.88
2024-03-05T05:41:58.458Z,101493.41
2024-03-05T05:43:00.684Z,101490.31
2024-03-05T05:44:04.039Z,101492.00
2024-03-05T05:45:10.243Z,101496.44
2024-03-05T05:46:16.042Z,101490.78
2024-03-05T05:47:18.453Z,101487.75
2024-03-05T05:48:29.429Z,101491.94
2024-03-05T05:49:33.706Z,101491.47
2024-03-05T05:50:37.889Z,101494.84
2024-03-05T05:51:40.191Z,101491.59
2024-03-05T05:52:43.092Z,101499.59
2024-03-05T05:53:46.367Z,101497.56
2024-03-05T05:54:49.152Z,101500.59
2024-03-05T05:55:52.427Z,101496.13
2024-03-05T05:56:54.698Z,101499.97
2024-03-05T05:57:58.739Z,101496.28
2024-03-05T05:59:01.397Z,101503.72
2024-03-05T06:00:09.077Z,101508.72
2024-03-05T06:01:15.152Z,101505.91
2024-03-05T06:02:21.233Z,101507.72
2024-03-05T06:03:24.063Z,101510.53
2024-03-05T06:04:28.078Z,101506.91
2024-03-05T06:05:33.312Z,101504.56
2024-03-05T06:06:37.969Z,101512.56
2024-03-05T06:07:41.547Z,101507.09
2024-03-05T06:08:43.705Z,101504.59
2024-03-05T06:09:46.974Z,101504.72
2024-03-05T06:10:50.320Z,101507.16
2024-03-05T06:11:53.804Z,101507.81
2024-03-05T06:12:55.984Z,101511.47
2024-03-05T06:13:59.276Z,101509.69
2024-03-05T06:15:01.481Z,101510.31
2024-03-05T06:16:08.982Z,101508.69
2024-03-05T06:17:11.475Z,101511.34
2024-03-05T06:18:17.130Z,101515.53
2024-03-05T06:19:19.669Z,101514.09
2024-03-05T06:20:22.958Z,101515.09
2024-03-05T06:21:25.343Z,101515.63
2024-03-05T06:22:34.163Z,101523.22
2024-03-05T06:23:38.633Z,101524.03
2024-03-05T06:24:42.507Z,101526.59
2024-03-05T06:25:44.812Z,101526.38
2024-03-05T06:26:48.057Z,101527.16
2024-03-05T06:27:50.275Z,101523.97
2024-03-05T06:28:53.548Z,101533.13
2024-03-05T06:29:56.263Z,101530.28
2024-03-05T06:30:59.672Z,101533.00
2024-03-05T06:32:02.087Z,101537.22
2024-03-05T06:33:10.194Z,101538.75
2024-03-05T06:34:15.515Z,101536.13
2024-03-05T06:35:23.882Z,101541.72
2024-03-05T06:36:26.216Z,101537.91
2024-03-05T06:37:29.513Z,101543.66
2024-03-05T06:38:32.917Z,101546.09
2024-03-05T06:39:43.056Z,101555.16
2024-03-05T06:40:45.562Z,101543.41
2024-03-05T06:41:53.750Z,101543.00
2024-03-05T06:43:05.515Z,101550.41
2024-03-05T06:44:12.351Z,101544.44
2024-03-05T06:45:16.454Z,101547.81
2024-03-05T06:46:20.122Z,101547.34
2024-03-05T06:47:28.486Z,101548.59
2024-03-05T06:48:34.257Z,101550.28
2024-03-05T06:49:40.024Z,101549.34
2024-03-05T06:50:44.254Z,101547.81
2024-03-05T06:51:54.597Z,101554.75
2024-03-05T06:53:15.598Z,101555.41
2024-03-05T06:54:36.641Z,101548.53
2024-03-05T06:55:57.278Z,101549.69
2024-03-05T06:57:00.701Z,101557.34
2024-03-05T06:58:05.365Z,101558.53
2024-03-05T06:59:11.495Z,101554.50
2024-03-05T07:00:16.937Z,101563.56
2024-03-05T07:01:21.840Z,101561.25
2024-03-05T07:02:27.472Z,101560.38
2024-03-05T07:03:30.738Z,101560.75
2024-03-05T07:04:32.955Z,101565.75
2024-03-05T07:05:37.303Z,101563.72
2024-03-05T07:06:40.549Z,101566.78
2024-03-05T07:07:43.101Z,101572.75
2024-03-05T07:08:48.581Z,101569.47
2024-03-05T07:09:51.268Z,101571.25
2024-03-05T07:10:55.499Z,101575.34
2024-03-05T07:11:58.369Z,101578.28
2024-03-05T07:13:02.365Z,101571.97
2024-03-05T07:14:04.722Z,101572.09
2024-03-05T07:15:10.446Z,101584.59
2024-03-05T07:16:15.318Z,101572.19
2024-03-05T07:17:18.688Z,101581.31
2024-03-05T07:18:20.969Z,101588.31
2024-03-05T07:19:24.363Z,101592.09
2024-03-05T07:20:28.922Z,101587.56
2024-03-05T07:21:34.972Z,101584.38
2024-03-05T07:22:37.823Z,101589.63
2024-03-05T07:23:42.088Z,101593.59
2024-03-05T07:24:44.273Z,101594.03
2024-03-05T07:25:47.589Z,101593.22
2024-03-05T07:26:56.897Z,101597.41
2024-03-05T07:28:10.793Z,101600.28
2024-03-05T07:29:13.188Z,101602.00
2024-03-05T07:30:17.950Z,101596.13
2024-03-05T07:31:20.623Z,101594.25
2024-03-05T07:32:24.019Z,101598.66
2024-03-05T07:33:26.338Z,101599.84
2024-03-05T07:34:30.456Z,101600.78
2024-03-05T07:35:32.696Z,101603.16
2024-03-05T07:36:41.036Z,101604.25
2024-03-05T07:37:46.476Z,101600.53
2024-03-05T07:38:49.842Z,101609.00
2024-03-05T07:39:52.067Z,101607.38
2024-03-05T07:40:55.414Z,101608.75
2024-03-05T07:41:58.428Z,101610.44
2024-03-05T07:43:03.431Z,101612.06
2024-03-05T07:44:06.116Z,101611.91
2024-03-05T07:45:08.887Z,101613.13
2024-03-05T07:46:12.854Z,101616.19
2024-03-05T07:47:15.030Z,101607.97
2024-03-05T07:48:19.163Z,101616.34
2024-03-05T07:49:21.613Z,101623.25
2024-03-05T07:50:24.030Z,101621.78
2024-03-05T07:51:29.427Z,101622.38
2024-03-05T07:52:38.174Z,101626.00
2024-03-05T07:53:42.695Z,101617.34
2024-03-05T07:54:45.437Z,101620.78
2024-03-05T07:55:48.796Z,101621.06
2024-03-05T07:56:51.389Z,101621.44
2024-03-05T07:57:54.723Z,101621.19
2024-03-05T07:58:58.455Z,101629.78
2024-03-05T08:00:00.993Z,101625.50
2024-03-05T08:01:04.383Z,101632.56
2024-03-05T08:02:06.894Z,101632.41
2024-03-05T08:03:11.574Z,101633.72
2024-03-05T08:04:13.772Z,101636.22
2024-03-05T08:05:19.873Z,101636.72
2024-03-05T08:06:22.170Z,101636.91
2024-03-05T08:07:25.442Z,101633.84
2024-03-05T08:08:30.722Z,101640.13
2024-03-05T08:09:36.338Z,101641.88
2024-03-05T08:10:38.701Z,101637.34
2024-03-05T08:11:42.135Z,101639.03
2024-03-05T08:12:45.568Z,101641.00
2024-03-05T08:13:49.509Z,101642.06
2024-03-05T08:14:51.776Z,101641.44
2024-03-05T08:15:56.407Z,101648.81
2024-03-05T08:16:59.110Z,101646.00
2024-03-05T08:18:02.662Z,101650.03
2024-03-05T08:19:05.616Z,101646.38
2024-03-05T08:20:10.124Z,101646.06
2024-03-05T08:21:12.360Z,101646.16
2024-03-05T08:22:15.682Z,101638.59
2024-03-05T08:23:17.864Z,101636.03
2024-03-05T08:24:21.607Z,101645.84
2024-03-05T08:25:25.794Z,101640.97
2024-03-05T08:26:29.032Z,101640.47
2024-03-05T08:27:32.209Z,101639.69
2024-03-05T08:28:34.481Z,101647.38
2024-03-05T08:29:40.764Z,101644.78
2024-03-05T08:30:43.961Z,101645.88
2024-03-05T08:31:47.316Z,101654.69
2024-03-05T08:32:50.539Z,101647.94
2024-03-05T08:33:53.819Z,101651.59
2024-03-05T08:34:56.078Z,101656.84
2024-03-05T08:35:59.378Z,101657.31
2024-03-05T08:37:01.658Z,101654.81
2024-03-05T08:38:05.129Z,101654.81
2024-03-05T08:39:19.167Z,101653.25
2024-03-05T08:40:24.608Z,101646.94
2024-03-05T08:41:26.894Z,101640.97
2024-03-05T08:42:30.201Z,101640.47
2024-03-05T08:43:32.821Z,101641.31
2024-03-05T08:44:36.068Z,101641.78
2024-03-05T08:45:38.423Z,101642.41
2024-03-05T08:46:41.744Z,101651.94
2024-03-05T08:47:46.260Z,101653.50
2024-03-05T08:48:49.598Z,101646.34
2024-03-05T08:49:52.174Z,101651.53
2024-03-05T08:50:55.419Z,101648.66
2024-03-05T08:51:59.792Z,101655.19
2024-03-05T08:53:04.237Z,101651.50
2024-03-05T08:54:10.111Z,101651.16
2024-03-05T08:55:15.333Z,101649.84
2024-03-05T08:56:19.036Z,101646.28
2024-03-05T08:57:21.415Z,101653.00
2024-03-05T08:58:24.744Z,101653.31
2024-03-05T08:59:27.107Z,101663.31
2024-03-05T09:00:41.838Z,101657.31
2024-03-05T09:01:45.834Z,101658.00
2024-03-05T09:02:49.553Z,101658.81
2024-03-05T09:03:53.415Z,101662.53
2024-03-05T09:04:56.732Z,101669.72
2024-03-05T09:05:59.042Z,101662.25
2024-03-05T09:07:02.825Z,101661.38
2024-03-05T09:08:06.863Z,101662.00
2024-03-05T09:09:12.537Z,101661.69
2024-03-05T09:10:16.336Z,101667.94
2024-03-05T09:11:21.128Z,101664.06
2024-03-05T09:12:23.654Z,101663.69
2024-03-05T09:13:26.960Z,101674.16
2024-03-05T09:14:29.351Z,101665.75
2024-03-05T09:15:32.652Z,101670.44
2024-03-05T09:16:34.957Z,101667.97
2024-03-05T09:17:38.387Z,101667.53
2024-03-05T09:18:40.790Z,101675.53
2024-03-05T09:19:45.798Z,101676.84
2024-03-05T09:20:48.316Z,101679.78
2024-03-05T09:21:51.635Z,101680.94
2024-03-05T09:22:53.899Z,101683.22
2024-03-05T09:23:57.458Z,101677.81
2024-03-05T09:24:59.860Z,101680.22
2024-03-05T09:26:03.773Z,101672.19
2024-03-05T09:27:07.666Z,101677.94
2024-03-05T09:28:10.910Z,101678.97
2024-03-05T09:29:16.241Z,101682.34
2024-03-05T09:30:20.977Z,101685.66
2024-03-05T09:31:23.312Z,101673.91
2024-03-05T09:32:26.725Z,101675.66
2024-03-05T09:33:30.550Z,101687.22
2024-03-05T09:34:34.320Z,101682.22
2024-03-05T09:35:36.601Z,101687.75
2024-03-05T09:36:40.512Z,101684.72
2024-03-05T09:37:45.736Z,101683.31
2024-03-05T09:38:49.164Z,101689.66
2024-03-05T09:39:52.177Z,101684.56
2024-03-05T09:40:56.930Z,101683.59
2024-03-05T09:42:00.137Z,101682.91
2024-03-05T09:43:06.211Z,101684.13
2024-03-05T09:44:09.461Z,101686.03
2024-03-05T09:45:17.160Z,101686.66
2024-03-05T09:46:22.083Z,101694.13
2024-03-05T09:47:27.402Z,101691.00
2024-03-05T09:48:30.089Z,101690.53
2024-03-05T09:49:33.602Z,101691.69
2024-03-05T09:50:37.048Z,101686.56
2024-03-05T09:51:42.714Z,101690.97
2024-03-05T09:52:47.264Z,101689.53
2024-03-05T09:53:53.813Z,101693.38
2024-03-05T09:54:56.052Z,101692.38
2024-03-05T09:55:59.364Z,101687.78
2024-03-05T09:57:05.511Z,101692.50
2024-03-05T09:58:12.322Z,101692.25
2024-03-05T09:59:17.657Z,101692.78
2024-03-05T10:00:23.080Z,101694.13
2024-03-05T10:01:25.906Z,101693.50
2024-03-05T10:02:30.350Z,101696.72
2024-03-05T10:03:33.492Z,101689.69
2024-03-05T10:04:41.918Z,101694.66
2024-03-05T10:05:44.253Z,101695.53
2024-03-05T10:06:47.993Z,101694.09
2024-03-05T10:07:50.698Z,101699.06
2024-03-05T10:08:55.353Z,101689.28
2024-03-05T10:10:08.815Z,101697.59
2024-03-05T10:11:15.320Z,101689.78
2024-03-05T10:12:17.746Z,101692.16
2024-03-05T10:13:23.167Z,101689.22
2024-03-05T10:14:25.905Z,101692.88
2024-03-05T10:15:28.394Z,101689.69
2024-03-05T10:16:31.879Z,101682.38
2024-03-05T10:17:42.475Z,101688.00
2024-03-05T10:18:47.890Z,101693.09
2024-03-05T10:19:50.139Z,101693.84
2024-03-05T10:20:52.499Z,101690.28
2024-03-05T10:21:55.733Z,101683.34
2024-03-05T10:22:59.916Z,101699.94
2024-03-05T10:24:04.698Z,101696.22
2024-03-05T10:25:14.845Z,101697.38
2024-03-05T10:26:25.985Z,101703.31
2024-03-05T10:27:28.898Z,101701.94
2024-03-05T10:28:33.041Z,101700.75
2024-03-05T10:29:39.048Z,101694.53
2024-03-05T10:30:44.364Z,101709.28
2024-03-05T10:31:48.410Z,101696.59
2024-03-05T10:32:54.965Z,101700.63
2024-03-05T10:33:59.605Z,101702.53
2024-03-05T10:35:02.317Z,101700.47
2024-03-05T10:36:05.150Z,101703.09
2024-03-05T10:37:08.993Z,101699.44
2024-03-05T10:38:15.692Z,101694.53
2024-03-05T10:39:19.654Z,101696.78
2024-03-05T10:40:22.451Z,101692.34
2024-03-05T10:41:31.865Z,101691.09
2024-03-05T10:42:43.588Z,101689.66
2024-03-05T10:43:50.602Z,101691.94
2024-03-05T10:44:54.247Z,101693.53
2024-03-05T10:45:56.730Z,101693.84
2024-03-05T10:47:00.244Z,101693.81
2024-03-05T10:48:03.415Z,101691.25
2024-03-05T10:49:08.605Z,101691.31
2024-03-05T10:50:14.648Z,101694.44
2024-03-05T10:51:19.793Z,101690.44
2024-03-05T10:52:26.177Z,101687.22
2024-03-05T10:53:29.557Z,101690.16
2024-03-05T10:54:33.945Z,101695.47
2024-03-05T10:55:38.545Z,101687.44
2024-03-05T10:56:44.840Z,101686.06
2024-03-05T10:58:02.454Z,101689.28
2024-03-05T10:59:22.457Z,101682.94
2024-03-05T11:00:26.437Z,101685.97
2024-03-05T11:01:33.186Z,101685.53
2024-03-05T11:02:35.914Z,101689.19
2024-03-05T11:03:41.017Z,101684.25
2024-03-05T11:04:44.296Z,101688.72
2024-03-05T11:05:51.794Z,101685.31
2024-03-05T11:06:57.944Z,101684.22
2024-03-05T11:08:03.303Z,101684.34
2024-03-05T11:09:05.924Z,101682.78
2024-03-05T11:10:13.504Z,101682.78
2024-03-05T11:11:20.321Z,101674.41
2024-03-05T11:12:24.203Z,101680.38
2024-03-05T11:13:28.456Z,101688.91
2024-03-05T11:14:34.488Z,101679.63
2024-03-05T11:15:37.148Z,101685.41
2024-03-05T11:16:40.592Z,101684.41
2024-03-05T11:17:43.990Z,101686.59
2024-03-05T11:18:49.041Z,101692.88
2024-03-05T11:19:51.371Z,101693.44
2024-03-05T11:20:55.008Z,101689.44
2024-03-05T11:22:00.022Z,101688.78
2024-03-05T11:23:05.921Z,101683.50
2024-03-05T11:24:08.692Z,101687.63
2024-03-05T11:25:32.215Z,101683.81
2024-03-05T11:26:35.698Z,101685.75
2024-03-05T11:27:38.909Z,101682.44
2024-03-05T11:28:41.351Z,101692.88
2024-03-05T11:29:46.652Z,101690.09
2024-03-05T11:30:48.908Z,101682.38
2024-03-05T11:31:54.691Z,101677.25
2024-03-05T11:32:56.980Z,101676.84
2024-03-05T11:34:11.219Z,101680.47
2024-03-05T11:35:14.742Z,101675.75
2024-03-05T11:36:23.281Z,101679.41
2024-03-05T11:37:25.543Z,101681.41
2024-03-05T11:38:28.848Z,101678.22
2024-03-05T11:39:31.301Z,101672.75
2024-03-05T11:40:38.593Z,101680.00
2024-03-05T11:41:43.324Z,101679.41
2024-03-05T11:42:47.683Z,101673.25
2024-03-05T11:43:49.970Z,101679.34
2024-03-05T11:44:54.953Z,101673.25
2024-03-05T11:45:58.579Z,101678.28
2024-03-05T11:47:00.937Z,101681.91
2024-03-05T11:48:06.185Z,101672.72
2024-03-05T11:49:09.014Z,101675.59
2024-03-05T11:50:12.738Z,101674.66
2024-03-05T11:51:14.934Z,101673.09
2024-03-05T11:52:20.596Z,101670.41
2024-03-05T11:53:24.184Z,101667.28
2024-03-05T11:54:27.440Z,101670.31
2024-03-05T11:55:29.798Z,101663.19
2024-03-05T11:56:33.149Z,101669.63
2024-03-05T11:57:36.456Z,101672.31
2024-03-05T11:58:39.230Z,101665.88
2024-03-05T11:59:42.065Z,101671.59
2024-03-05T12:00:48.383Z,101668.50
2024-03-05T12:01:50.804Z,101670.38
2024-03-05T12:02:54.895Z,101676.34
2024-03-05T12:04:02.084Z,101676.72
2024-03-05T12:05:07.957Z,101680.25
2024-03-05T12:06:11.631Z,101676.59
2024-03-05T12:07:15.358Z,101677.41
2024-03-05T12:08:23.908Z,101680.03
2024-03-05T12:09:27.222Z,101668.09
2024-03-05T12:10:32.801Z,101677.72
2024-03-05T12:11:37.478Z,101677.31
2024-03-05T12:12:39.692Z,101677.22